createdAt,value
2018-01-18T04:32:34.118Z,3.10
2018-01-18T04:35:08.644Z,3.20
2018-01-18T04:37:42.312Z,3.20
2018-01-18T04:40:16.376Z,3.30
2018-01-18T04:42:50.136Z,3.20
2018-01-18T04:45:25.408Z,3.30
2018-01-18T04:47:59.215Z,3.30
2018-01-18T04:50:33.060Z,3.30
2018-01-18T04:53:06.853Z,3.30
2018-01-18T04:55:40.663Z,3.30
2018-01-18T04:58:36.440Z,3.30
2018-01-18T05:01:10.284Z,3.30
2018-01-18T05:03:44.895Z,3.30
2018-01-18T05:06:18.699Z,3.30
2018-01-18T05:08:52.799Z,3.30
2018-01-18T05:11:27.421Z,3.30
2018-01-18T05:14:01.263Z,3.30
2018-01-18T05:16:35.060Z,3.30
2018-01-18T05:19:08.899Z,3.40
2018-01-18T05:21:42.607Z,3.40
2018-01-18T05:24:17.913Z,3.40
2018-01-18T05:26:52.504Z,3.40
2018-01-18T05:29:27.143Z,3.40
2018-01-18T05:32:00.948Z,3.40
2018-01-18T05:34:35.476Z,3.40
2018-01-18T05:37:09.295Z,3.40
2018-01-18T05:39:43.405Z,3.40
2018-01-18T05:42:18.012Z,3.40
2018-01-18T05:44:51.864Z,3.40
2018-01-18T05:47:25.685Z,3.40
2018-01-18T05:49:59.534Z,3.40
2018-01-18T05:52:33.261Z,3.40
2018-01-18T05:55:07.925Z,3.50
2018-01-18T05:57:42.623Z,3.50
2018-01-18T06:00:16.643Z,3.50
2018-01-18T06:02:50.476Z,3.50
2018-01-18T06:05:25.056Z,3.50
2018-01-18T06:07:58.897Z,3.50
2018-01-18T06:10:34.484Z,3.60
2018-01-18T06:13:08.297Z,3.50
2018-01-18T06:15:42.813Z,3.60
2018-01-18T06:18:16.594Z,3.60
2018-01-18T06:20:51.264Z,3.60
2018-01-18T06:23:25.069Z,3.60
2018-01-18T06:25:58.915Z,3.70
2018-01-18T06:28:32.679Z,3.70
2018-01-18T06:31:06.749Z,3.70
2018-01-18T06:33:40.690Z,3.70
2018-01-18T06:36:14.541Z,3.80
2018-01-18T06:38:48.323Z,3.70
2018-01-18T06:41:22.152Z,3.80
2018-01-18T06:43:55.964Z,3.70
2018-01-18T06:46:29.737Z,3.70
2018-01-18T06:49:03.756Z,4.30
2018-01-18T06:51:37.536Z,4.90
2018-01-18T06:54:11.430Z,4.60
2018-01-18T06:56:45.119Z,4.10
2018-01-18T06:59:19.008Z,3.80
2018-01-18T07:01:52.659Z,3.70
2018-01-18T07:04:26.870Z,3.60
2018-01-18T07:07:00.668Z,3.60
2018-01-18T07:09:35.320Z,3.60
2018-01-18T07:12:09.120Z,3.60
2018-01-18T07:14:42.964Z,3.70
2018-01-18T07:17:17.315Z,3.70
2018-01-18T07:19:51.183Z,3.70
2018-01-18T07:22:25.015Z,3.70
2018-01-18T07:24:58.791Z,3.70
2018-01-18T07:27:32.557Z,3.70
2018-01-18T07:30:07.408Z,3.70
2018-01-18T07:32:41.976Z,3.80
2018-01-18T07:35:15.775Z,3.70
2018-01-18T07:37:49.444Z,3.80
2018-01-18T07:42:57.637Z,3.90
2018-01-18T07:45:31.429Z,3.90
2018-01-18T07:48:05.124Z,3.90
2018-01-18T07:50:38.890Z,4.00
2018-01-18T07:53:12.831Z,4.00
2018-01-18T07:55:47.331Z,4.10
2018-01-18T07:58:21.921Z,4.20
2018-01-18T08:00:58.390Z,4.20
2018-01-18T08:03:38.653Z,4.20
2018-01-18T08:06:12.563Z,4.20
2018-01-18T08:08:47.195Z,4.30
2018-01-18T08:11:21.811Z,4.30
2018-01-18T08:13:55.646Z,4.30
2018-01-18T08:16:30.260Z,4.40
2018-01-18T08:19:03.960Z,4.40
2018-01-18T08:21:37.779Z,4.40
2018-01-18T08:24:14.579Z,4.40
2018-01-18T08:26:49.247Z,4.40
2018-01-18T08:29:23.040Z,4.40
2018-01-18T08:31:56.828Z,4.50
2018-01-18T08:34:32.468Z,4.50
2018-01-18T08:37:06.260Z,4.50
2018-01-18T08:39:40.048Z,4.60
2018-01-18T08:42:14.661Z,4.60
2018-01-18T08:44:49.092Z,4.70
2018-01-18T08:47:23.494Z,4.70
2018-01-18T08:50:00.674Z,4.70
2018-01-18T08:52:35.303Z,4.70
2018-01-18T08:55:09.028Z,4.70
2018-01-18T08:57:42.836Z,4.80
2018-01-18T09:00:16.671Z,4.80
2018-01-18T09:02:50.451Z,4.90
2018-01-18T09:05:25.211Z,4.90
2018-01-18T09:07:58.963Z,4.90
2018-01-18T09:10:32.710Z,5.00
2018-01-18T09:13:06.492Z,5.10
2018-01-18T09:15:40.357Z,5.10
2018-01-18T09:18:14.195Z,5.10
2018-01-18T09:20:48.039Z,5.20
2018-01-18T09:23:21.833Z,5.40
2018-01-18T09:25:56.028Z,5.40
2018-01-18T09:28:30.051Z,5.40
2018-01-18T09:31:03.748Z,5.50
2018-01-18T09:33:37.439Z,5.60
2018-01-18T09:36:11.251Z,5.70
2018-01-18T09:38:45.145Z,5.80
2018-01-18T09:41:18.945Z,5.80
2018-01-18T09:43:53.103Z,5.80
2018-01-18T09:46:27.768Z,6.00
2018-01-18T09:49:02.431Z,6.30
2018-01-18T09:51:36.188Z,6.30
2018-01-18T09:54:10.329Z,6.40
2018-01-18T09:56:44.106Z,6.50
2018-01-18T09:59:17.945Z,6.70
2018-01-18T10:01:51.720Z,6.70
2018-01-18T10:04:25.631Z,6.70
2018-01-18T10:07:00.160Z,6.80
2018-01-18T10:09:34.723Z,7.10
2018-01-18T10:12:08.593Z,7.10
2018-01-18T10:14:43.250Z,7.20
2018-01-18T10:17:19.173Z,7.20
2018-01-18T10:19:52.998Z,7.40
2018-01-18T10:22:26.840Z,7.50
2018-01-18T10:25:01.450Z,7.70
2018-01-18T10:27:35.376Z,7.70
2018-01-18T10:30:09.083Z,7.80
2018-01-18T10:32:42.932Z,7.80
2018-01-18T10:35:16.703Z,7.90
2018-01-18T10:37:50.425Z,7.90
2018-01-18T10:40:24.137Z,7.80
2018-01-18T10:42:57.891Z,7.80
2018-01-18T10:45:31.707Z,7.70
2018-01-18T10:48:05.484Z,7.60
2018-01-18T10:50:40.129Z,7.80
2018-01-18T10:53:14.710Z,7.70
2018-01-18T10:55:49.283Z,7.80
2018-01-18T10:58:23.091Z,7.80
2018-01-18T11:00:56.923Z,7.80
2018-01-18T11:03:30.732Z,7.90
2018-01-18T11:06:05.310Z,8.10
2018-01-18T11:08:42.188Z,8.10
2018-01-18T11:11:16.124Z,8.00
2018-01-18T11:13:50.727Z,8.00
2018-01-18T11:16:24.624Z,8.00
2018-01-18T11:18:59.203Z,8.00
2018-01-18T11:21:33.667Z,8.00
2018-01-18T11:24:08.176Z,8.00
2018-01-18T11:26:41.944Z,8.00
2018-01-18T11:29:18.225Z,8.00
2018-01-18T11:31:52.109Z,8.00
2018-01-18T11:34:25.968Z,8.00
2018-01-18T11:37:00.806Z,8.20
2018-01-18T11:39:34.719Z,8.20
2018-01-18T11:42:09.472Z,8.40
2018-01-18T11:44:43.154Z,8.40
2018-01-18T11:47:17.034Z,8.30
2018-01-18T11:49:50.801Z,8.50
2018-01-18T11:52:24.511Z,8.50
2018-01-18T11:54:58.327Z,8.50
2018-01-18T11:57:32.919Z,8.40
2018-01-18T12:00:06.684Z,8.30
2018-01-18T12:02:41.339Z,8.50
2018-01-18T12:05:15.923Z,8.70
2018-01-18T12:07:49.811Z,8.60
2018-01-18T12:10:24.359Z,8.70
2018-01-18T12:12:58.227Z,8.70
2018-01-18T12:15:32.021Z,8.80
2018-01-18T12:18:06.632Z,8.90
2018-01-18T12:20:40.423Z,8.80
2018-01-18T12:23:20.007Z,9.00
2018-01-18T12:25:53.860Z,9.00
2018-01-18T12:28:27.928Z,8.90
2018-01-18T12:31:06.104Z,8.90
2018-01-18T12:33:40.490Z,8.90
2018-01-18T12:36:21.347Z,8.90
2018-01-18T12:38:55.051Z,8.90
2018-01-18T12:41:29.792Z,8.80
2018-01-18T12:44:03.628Z,8.80
2018-01-18T12:46:37.383Z,8.90
2018-01-18T12:49:11.957Z,9.00
2018-01-18T12:51:46.473Z,9.00
2018-01-18T12:54:20.615Z,9.00
2018-01-18T12:56:55.099Z,9.00
2018-01-18T12:59:28.974Z,9.00
2018-01-18T13:02:03.037Z,9.10
2018-01-18T13:04:37.206Z,9.20
2018-01-18T13:07:10.849Z,9.20
2018-01-18T13:09:46.829Z,9.30
2018-01-18T13:12:22.145Z,9.20
2018-01-18T13:14:56.682Z,9.30
2018-01-18T13:17:30.427Z,9.30
2018-01-18T13:20:04.268Z,9.30
2018-01-18T13:22:38.031Z,9.10
2018-01-18T13:25:11.772Z,9.00
2018-01-18T13:27:45.639Z,9.00
2018-01-18T13:30:19.431Z,9.00
2018-01-18T13:32:53.535Z,9.00
2018-01-18T13:35:27.294Z,9.10
2018-01-18T13:38:01.876Z,9.00
2018-01-18T13:40:37.677Z,9.00
2018-01-18T13:43:12.341Z,8.90
2018-01-18T13:45:46.932Z,8.80
2018-01-18T13:48:21.439Z,8.80
2018-01-18T13:50:55.188Z,8.80
2018-01-18T13:53:29.023Z,8.80
2018-01-18T13:56:03.476Z,8.70
2018-01-18T13:58:38.037Z,8.70
2018-01-18T14:01:12.640Z,8.70
2018-01-18T14:03:46.424Z,8.70
2018-01-18T14:06:21.071Z,8.80
2018-01-18T14:08:54.949Z,8.80
2018-01-18T14:11:28.711Z,8.80
2018-01-18T14:14:02.487Z,8.80
2018-01-18T14:16:36.240Z,8.90
2018-01-18T14:19:10.073Z,8.90
2018-01-18T14:21:46.956Z,9.00
2018-01-18T14:24:21.660Z,9.00
2018-01-18T14:26:55.448Z,9.00
2018-01-18T14:29:29.457Z,9.10
2018-01-18T14:32:03.231Z,9.10
2018-01-18T14:34:37.752Z,9.10
2018-01-18T14:37:14.739Z,9.10
2018-01-18T14:39:48.341Z,9.10
2018-01-18T14:42:23.018Z,9.00
2018-01-18T14:44:57.507Z,8.90
2018-01-18T14:47:31.285Z,8.90
2018-01-18T14:50:05.123Z,8.80
2018-01-18T14:52:38.932Z,8.80
2018-01-18T14:55:13.540Z,8.70
2018-01-18T14:57:48.128Z,8.60
2018-01-18T15:00:21.948Z,8.60
2018-01-18T15:02:55.739Z,8.60
2018-01-18T15:05:29.610Z,8.60
2018-01-18T15:08:05.207Z,8.40
2018-01-18T15:10:40.161Z,8.40
2018-01-18T15:13:13.988Z,8.30
2018-01-18T15:15:47.748Z,8.30
2018-01-18T15:18:21.569Z,8.20
2018-01-18T15:20:55.433Z,8.20
2018-01-18T15:23:30.096Z,8.10
2018-01-18T15:26:03.883Z,8.10
2018-01-18T15:28:39.660Z,8.00
2018-01-18T15:31:13.499Z,8.00
2018-01-18T15:33:47.195Z,8.10
2018-01-18T15:36:21.114Z,8.10
2018-01-18T15:38:55.611Z,8.00
2018-01-18T15:41:29.400Z,8.00
2018-01-18T15:44:04.036Z,8.00
2018-01-18T15:46:38.668Z,8.00
2018-01-18T15:49:12.407Z,7.90
2018-01-18T15:51:46.209Z,8.00
2018-01-18T15:54:20.156Z,8.00
2018-01-18T15:56:54.724Z,8.00
2018-01-18T15:59:29.541Z,8.00
2018-01-18T16:02:03.404Z,8.00
2018-01-18T16:04:37.072Z,8.00
2018-01-18T16:07:10.784Z,8.00
2018-01-18T16:09:44.587Z,7.90
2018-01-18T16:12:18.434Z,7.90
2018-01-18T16:14:53.012Z,7.80
2018-01-18T16:17:26.849Z,7.80
2018-01-18T16:20:00.946Z,7.70
2018-01-18T16:22:35.456Z,7.80
2018-01-18T16:25:20.548Z,7.70
2018-01-18T16:27:54.952Z,7.70
2018-01-18T16:30:33.318Z,7.70
2018-01-18T16:33:07.780Z,7.70
2018-01-18T16:35:41.658Z,7.70
2018-01-18T16:38:15.498Z,7.70
2018-01-18T16:40:50.307Z,7.70
2018-01-18T16:43:24.040Z,7.60
2018-01-18T16:45:58.741Z,7.60
2018-01-18T16:48:32.516Z,7.50
2018-01-18T16:51:06.208Z,7.60
2018-01-18T16:53:40.955Z,7.60
2018-01-18T16:56:14.736Z,7.60
2018-01-18T16:58:48.488Z,7.70
2018-01-18T17:01:23.221Z,7.60
2018-01-18T17:03:56.929Z,7.60
2018-01-18T17:06:30.655Z,7.60
2018-01-18T17:09:04.379Z,7.60
2018-01-18T17:11:38.156Z,7.60
2018-01-18T17:14:12.824Z,7.50
2018-01-18T17:16:47.320Z,7.40
2018-01-18T17:19:20.979Z,7.40
2018-01-18T17:21:54.792Z,7.40
2018-01-18T17:24:29.199Z,7.30
2018-01-18T17:27:03.058Z,7.30
2018-01-18T17:29:36.875Z,7.30
2018-01-18T17:32:11.760Z,7.30
2018-01-18T17:34:46.179Z,7.20
2018-01-18T17:37:19.863Z,7.20
2018-01-18T17:39:53.643Z,7.20
2018-01-18T17:42:27.460Z,7.20
2018-01-18T17:45:01.220Z,7.20
2018-01-18T17:47:35.342Z,7.20
2018-01-18T17:50:09.908Z,7.20
2018-01-18T17:52:45.607Z,7.20
2018-01-18T17:55:19.343Z,7.20
2018-01-18T17:57:53.031Z,7.20
2018-01-18T18:00:27.593Z,7.20
2018-01-18T18:03:01.772Z,7.20
2018-01-18T18:05:35.564Z,7.20
2018-01-18T18:08:09.421Z,7.30
2018-01-18T18:10:44.115Z,7.40
2018-01-18T18:13:18.715Z,7.40
2018-01-18T18:15:52.428Z,7.40
2018-01-18T18:18:27.948Z,7.40
2018-01-18T18:21:01.672Z,7.40
2018-01-18T18:23:35.495Z,7.40
2018-01-18T18:26:09.685Z,7.40
2018-01-18T18:28:43.547Z,7.30
2018-01-18T18:31:17.319Z,7.20
2018-01-18T18:33:51.125Z,7.20
2018-01-18T18:36:25.130Z,7.00
2018-01-18T18:38:58.933Z,6.90
2018-01-18T18:41:33.537Z,6.70
2018-01-18T18:44:07.340Z,6.70
2018-01-18T18:46:41.353Z,6.60
2018-01-18T18:49:15.248Z,6.50
2018-01-18T18:51:49.884Z,6.40
2018-01-18T18:54:24.304Z,6.30
2018-01-18T18:56:58.932Z,6.30
2018-01-18T18:59:34.331Z,6.20
2018-01-18T19:02:08.794Z,6.20
2018-01-18T19:04:43.936Z,6.10
2018-01-18T19:07:18.276Z,6.10
2018-01-18T19:09:53.907Z,6.10
2018-01-18T19:12:28.725Z,6.10
2018-01-18T19:15:03.356Z,6.00
2018-01-18T19:17:37.926Z,6.00
2018-01-18T19:20:12.308Z,6.00
2018-01-18T19:22:46.828Z,5.90
2018-01-18T19:25:21.347Z,5.90
2018-01-18T19:27:55.576Z,5.90
2018-01-18T19:30:30.314Z,5.80
2018-01-18T19:33:04.708Z,5.80
2018-01-18T19:35:40.873Z,5.80
2018-01-18T19:38:15.946Z,5.80
2018-01-18T19:40:50.444Z,5.80
2018-01-18T19:43:26.822Z,5.80
2018-01-18T19:46:00.538Z,5.80
2018-01-18T19:48:35.385Z,5.80
2018-01-18T19:51:09.083Z,5.80
2018-01-18T19:53:42.867Z,5.90
2018-01-18T19:56:16.544Z,6.00
2018-01-18T19:58:51.168Z,6.00
2018-01-18T20:01:25.082Z,6.00
2018-01-18T20:03:59.983Z,6.00
2018-01-18T20:06:34.576Z,6.00
2018-01-18T20:09:08.280Z,6.00
2018-01-18T20:11:42.139Z,6.00
2018-01-18T20:14:16.786Z,6.00
2018-01-18T20:16:50.547Z,6.00
2018-01-18T20:19:24.366Z,6.00
2018-01-18T20:21:58.142Z,6.00
2018-01-18T20:24:32.022Z,6.00
2018-01-18T20:27:05.871Z,6.00
2018-01-18T20:29:39.620Z,6.10
2018-01-18T20:32:14.757Z,6.10
2018-01-18T20:34:48.603Z,6.00
2018-01-18T20:37:23.212Z,6.10
2018-01-18T20:39:57.018Z,6.10
2018-01-18T20:42:30.733Z,6.20
2018-01-18T20:45:05.292Z,6.20
2018-01-18T20:47:39.115Z,6.20
2018-01-18T20:50:13.020Z,6.20
2018-01-18T20:52:47.043Z,6.10
2018-01-18T20:55:20.933Z,6.10
2018-01-18T20:57:54.783Z,6.10
2018-01-18T21:00:28.671Z,6.10
2018-01-18T21:03:02.519Z,6.10
2018-01-18T21:05:36.363Z,6.20
2018-01-18T21:08:10.241Z,6.20
2018-01-18T21:10:44.138Z,6.20
2018-01-18T21:13:17.997Z,6.20
2018-01-18T21:15:52.495Z,6.20
2018-01-18T21:18:26.214Z,6.20
2018-01-18T21:21:00.116Z,6.20
2018-01-18T21:23:34.078Z,6.20
2018-01-18T21:26:08.540Z,6.30
2018-01-18T21:28:42.443Z,6.30
2018-01-18T21:31:16.199Z,6.30
2018-01-18T21:33:50.118Z,6.30
2018-01-18T21:36:23.849Z,6.30
2018-01-18T21:38:57.702Z,6.30
2018-01-18T21:41:32.283Z,6.30
2018-01-18T21:44:06.040Z,6.30
2018-01-18T21:46:39.905Z,6.30
2018-01-18T21:49:13.655Z,6.30
2018-01-18T21:51:47.527Z,6.30
2018-01-18T21:54:21.258Z,6.40
2018-01-18T21:56:55.960Z,6.40
2018-01-18T21:59:30.396Z,6.40
